sensor_id;sensor_type;location;lat;lon;timestamp;temperature;humidity
76567;DHT22;65428;53.194;6.132;2023-04-25T00:01:20;6.70;99.90
76567;DHT22;65428;53.194;6.132;2023-04-25T00:03:47;6.70;99.90
76567;DHT22;65428;53.194;6.132;2023-04-25T00:06:13;6.70;99.90
76567;DHT22;65428;53.194;6.132;2023-04-25T00:08:39;6.70;99.90
76567;DHT22;65428;53.194;6.132;2023-04-25T00:11:05;6.60;99.90
76567;DHT22;65428;53.194;6.132;2023-04-25T00:13:31;6.60;99.90
76567;DHT22;65428;53.194;6.132;2023-04-25T00:15:56;6.60;99.90
76567;DHT22;65428;53.194;6.132;2023-04-25T00:18:23;6.50;99.90
76567;DHT22;65428;53.194;6.132;2023-04-25T00:20:49;6.40;99.90
76567;DHT22;65428;53.194;6.132;2023-04-25T00:23:16;6.40;99.90
76567;DHT22;65428;53.194;6.132;2023-04-25T00:25:52;6.50;99.90
76567;DHT22;65428;53.194;6.132;2023-04-25T00:28:18;6.30;99.90
76567;DHT22;65428;53.194;6.132;2023-04-25T00:30:44;6.30;99.90
76567;DHT22;65428;53.194;6.132;2023-04-25T00:33:09;6.30;99.90
76567;DHT22;65428;53.194;6.132;2023-04-25T00:35:36;6.20;99.90
76567;DHT22;65428;53.194;6.132;2023-04-25T00:38:01;6.20;99.90
76567;DHT22;65428;53.194;6.132;2023-04-25T00:40:28;6.30;99.90
76567;DHT22;65428;53.194;6.132;2023-04-25T00:42:54;6.30;99.90
76567;DHT22;65428;53.194;6.132;2023-04-25T00:45:20;6.30;99.90
76567;DHT22;65428;53.194;6.132;2023-04-25T00:47:46;6.20;99.90
76567;DHT22;65428;53.194;6.132;2023-04-25T00:50:13;6.20;99.90
76567;DHT22;65428;53.194;6.132;2023-04-25T00:52:44;6.20;99.90
76567;DHT22;65428;53.194;6.132;2023-04-25T00:55:11;6.20;99.90
76567;DHT22;65428;53.194;6.132;2023-04-25T00:57:38;6.20;99.90
76567;DHT22;65428;53.194;6.132;2023-04-25T01:00:08;6.50;99.90
76567;DHT22;65428;53.194;6.132;2023-04-25T01:02:35;6.30;99.90
76567;DHT22;65428;53.194;6.132;2023-04-25T01:05:02;6.30;99.90
76567;DHT22;65428;53.194;6.132;2023-04-25T01:07:28;6.30;99.90
76567;DHT22;65428;53.194;6.132;2023-04-25T01:09:54;6.30;99.90
76567;DHT22;65428;53.194;6.132;2023-04-25T01:12:19;6.30;99.90
76567;DHT22;65428;53.194;6.132;2023-04-25T01:14:46;6.30;99.90
76567;DHT22;65428;53.194;6.132;2023-04-25T01:17:12;6.30;99.90
76567;DHT22;65428;53.194;6.132;2023-04-25T01:19:38;6.30;99.90
76567;DHT22;65428;53.194;6.132;2023-04-25T01:22:05;6.30;99.90
76567;DHT22;65428;53.194;6.132;2023-04-25T01:24:33;6.30;99.90
76567;DHT22;65428;53.194;6.132;2023-04-25T01:27:02;6.30;99.90
76567;DHT22;65428;53.194;6.132;2023-04-25T01:29:29;6.30;99.90
76567;DHT22;65428;53.194;6.132;2023-04-25T01:31:55;6.30;99.90
76567;DHT22;65428;53.194;6.132;2023-04-25T01:34:21;6.30;99.90
76567;DHT22;65428;53.194;6.132;2023-04-25T01:36:49;6.40;99.90
76567;DHT22;65428;53.194;6.132;2023-04-25T01:39:15;6.40;99.90
76567;DHT22;65428;53.194;6.132;2023-04-25T01:41:41;6.50;99.90
76567;DHT22;65428;53.194;6.132;2023-04-25T01:44:07;6.40;99.90
76567;DHT22;65428;53.194;6.132;2023-04-25T01:46:34;6.50;99.90
76567;DHT22;65428;53.194;6.132;2023-04-25T01:49:00;6.50;99.90
76567;DHT22;65428;53.194;6.132;2023-04-25T01:51:25;6.40;99.90
76567;DHT22;65428;53.194;6.132;2023-04-25T01:53:51;6.50;99.90
76567;DHT22;65428;53.194;6.132;2023-04-25T01:56:18;6.40;99.90
76567;DHT22;65428;53.194;6.132;2023-04-25T01:58:44;6.40;99.90
76567;DHT22;65428;53.194;6.132;2023-04-25T02:01:12;6.40;99.90
76567;DHT22;65428;53.194;6.132;2023-04-25T02:03:37;6.30;99.90
76567;DHT22;65428;53.194;6.132;2023-04-25T02:06:03;6.30;99.90
76567;DHT22;65428;53.194;6.132;2023-04-25T02:08:29;6.30;99.90
76567;DHT22;65428;53.194;6.132;2023-04-25T02:10:55;6.40;99.90
76567;DHT22;65428;53.194;6.132;2023-04-25T02:13:21;6.30;99.90
76567;DHT22;65428;53.194;6.132;2023-04-25T02:15:46;6.30;99.90
76567;DHT22;65428;53.194;6.132;2023-04-25T02:18:12;6.30;99.90
76567;DHT22;65428;53.194;6.132;2023-04-25T02:20:38;6.50;99.90
76567;DHT22;65428;53.194;6.132;2023-04-25T02:23:04;6.20;99.90
76567;DHT22;65428;53.194;6.132;2023-04-25T02:25:30;6.20;99.90
76567;DHT22;65428;53.194;6.132;2023-04-25T02:27:55;6.20;99.90
76567;DHT22;65428;53.194;6.132;2023-04-25T02:30:21;6.10;99.90
76567;DHT22;65428;53.194;6.132;2023-04-25T02:32:46;6.10;99.90
76567;DHT22;65428;53.194;6.132;2023-04-25T02:35:12;5.90;99.90
76567;DHT22;65428;53.194;6.132;2023-04-25T02:37:39;5.40;99.90
76567;DHT22;65428;53.194;6.132;2023-04-25T02:40:06;5.70;99.90
76567;DHT22;65428;53.194;6.132;2023-04-25T02:42:32;5.50;99.90
76567;DHT22;65428;53.194;6.132;2023-04-25T02:44:57;5.50;99.90
76567;DHT22;65428;53.194;6.132;2023-04-25T02:47:23;5.50;99.90
76567;DHT22;65428;53.194;6.132;2023-04-25T02:49:49;5.50;99.90
76567;DHT22;65428;53.194;6.132;2023-04-25T02:52:14;5.50;99.90
76567;DHT22;65428;53.194;6.132;2023-04-25T02:54:40;5.50;99.90
76567;DHT22;65428;53.194;6.132;2023-04-25T02:57:07;5.50;99.90
76567;DHT22;65428;53.194;6.132;2023-04-25T02:59:33;5.50;99.90
76567;DHT22;65428;53.194;6.132;2023-04-25T03:01:58;5.50;99.90
76567;DHT22;65428;53.194;6.132;2023-04-25T03:04:24;5.50;99.90
76567;DHT22;65428;53.194;6.132;2023-04-25T03:06:50;5.50;99.90
76567;DHT22;65428;53.194;6.132;2023-04-25T03:09:16;5.50;99.90
76567;DHT22;65428;53.194;6.132;2023-04-25T03:11:43;5.50;99.90
76567;DHT22;65428;53.194;6.132;2023-04-25T03:14:09;5.50;99.90
76567;DHT22;65428;53.194;6.132;2023-04-25T03:16:34;5.50;99.90
76567;DHT22;65428;53.194;6.132;2023-04-25T03:19:00;5.50;99.90
76567;DHT22;65428;53.194;6.132;2023-04-25T03:21:26;5.70;99.90
76567;DHT22;65428;53.194;6.132;2023-04-25T03:23:52;5.60;99.90
76567;DHT22;65428;53.194;6.132;2023-04-25T03:26:17;5.60;99.90
76567;DHT22;65428;53.194;6.132;2023-04-25T03:28:43;5.60;99.90
76567;DHT22;65428;53.194;6.132;2023-04-25T03:31:08;5.60;99.90
76567;DHT22;65428;53.194;6.132;2023-04-25T03:33:34;5.50;99.90
76567;DHT22;65428;53.194;6.132;2023-04-25T03:36:00;5.60;99.90
76567;DHT22;65428;53.194;6.132;2023-04-25T03:38:25;5.50;99.90
76567;DHT22;65428;53.194;6.132;2023-04-25T03:40:51;5.70;99.90
76567;DHT22;65428;53.194;6.132;2023-04-25T03:43:17;5.70;99.90
76567;DHT22;65428;53.194;6.132;2023-04-25T03:45:42;5.80;99.90
76567;DHT22;65428;53.194;6.132;2023-04-25T03:48:08;5.70;99.90
76567;DHT22;65428;53.194;6.132;2023-04-25T03:50:34;5.30;99.90
76567;DHT22;65428;53.194;6.132;2023-04-25T03:53:00;5.20;99.90
76567;DHT22;65428;53.194;6.132;2023-04-25T03:55:26;5.10;99.90
76567;DHT22;65428;53.194;6.132;2023-04-25T03:57:51;4.90;99.90
76567;DHT22;65428;53.194;6.132;2023-04-25T04:00:17;4.80;99.90
76567;DHT22;65428;53.194;6.132;2023-04-25T04:02:42;4.70;99.90
76567;DHT22;65428;53.194;6.132;2023-04-25T04:05:08;4.60;99.90
76567;DHT22;65428;53.194;6.132;2023-04-25T04:07:34;4.50;99.90
76567;DHT22;65428;53.194;6.132;2023-04-25T04:10:08;4.40;99.90
76567;DHT22;65428;53.194;6.132;2023-04-25T04:12:34;4.30;99.90
76567;DHT22;65428;53.194;6.132;2023-04-25T04:15:00;4.30;99.90
76567;DHT22;65428;53.194;6.132;2023-04-25T04:17:26;4.20;99.90
76567;DHT22;65428;53.194;6.132;2023-04-25T04:19:52;4.20;99.90
76567;DHT22;65428;53.194;6.132;2023-04-25T04:22:17;4.20;99.90
76567;DHT22;65428;53.194;6.132;2023-04-25T04:24:43;4.10;99.90
76567;DHT22;65428;53.194;6.132;2023-04-25T04:27:12;4.10;99.90
76567;DHT22;65428;53.194;6.132;2023-04-25T04:29:38;4.10;99.90
76567;DHT22;65428;53.194;6.132;2023-04-25T04:32:04;4.10;99.90
76567;DHT22;65428;53.194;6.132;2023-04-25T04:34:30;4.10;99.90
76567;DHT22;65428;53.194;6.132;2023-04-25T04:36:57;4.10;99.90
76567;DHT22;65428;53.194;6.132;2023-04-25T04:39:22;4.10;99.90
76567;DHT22;65428;53.194;6.132;2023-04-25T04:41:48;4.20;99.90
76567;DHT22;65428;53.194;6.132;2023-04-25T04:44:14;4.30;99.90
76567;DHT22;65428;53.194;6.132;2023-04-25T04:46:40;4.30;99.90
76567;DHT22;65428;53.194;6.132;2023-04-25T04:49:08;4.40;99.90
76567;DHT22;65428;53.194;6.132;2023-04-25T04:51:34;4.50;99.90
76567;DHT22;65428;53.194;6.132;2023-04-25T04:54:00;4.50;99.90
76567;DHT22;65428;53.194;6.132;2023-04-25T04:56:28;4.60;99.90
76567;DHT22;65428;53.194;6.132;2023-04-25T04:58:57;4.60;99.90
76567;DHT22;65428;53.194;6.132;2023-04-25T05:01:22;4.70;99.90
76567;DHT22;65428;53.194;6.132;2023-04-25T05:03:48;4.80;99.90
76567;DHT22;65428;53.194;6.132;2023-04-25T05:06:14;4.80;99.90
76567;DHT22;65428;53.194;6.132;2023-04-25T05:08:40;4.90;99.90
76567;DHT22;65428;53.194;6.132;2023-04-25T05:11:05;5.00;99.90
76567;DHT22;65428;53.194;6.132;2023-04-25T05:13:31;5.10;99.90
76567;DHT22;65428;53.194;6.132;2023-04-25T05:15:56;5.30;99.90
76567;DHT22;65428;53.194;6.132;2023-04-25T05:18:22;5.40;99.90
76567;DHT22;65428;53.194;6.132;2023-04-25T05:20:48;5.60;99.90
76567;DHT22;65428;53.194;6.132;2023-04-25T05:23:13;5.70;99.90
76567;DHT22;65428;53.194;6.132;2023-04-25T05:25:39;5.90;99.90
76567;DHT22;65428;53.194;6.132;2023-04-25T05:28:04;6.00;99.90
76567;DHT22;65428;53.194;6.132;2023-04-25T05:30:31;6.10;99.90
76567;DHT22;65428;53.194;6.132;2023-04-25T05:32:56;6.30;99.90
76567;DHT22;65428;53.194;6.132;2023-04-25T05:35:22;6.20;99.90
76567;DHT22;65428;53.194;6.132;2023-04-25T05:37:47;6.20;99.90
76567;DHT22;65428;53.194;6.132;2023-04-25T05:40:13;6.20;99.90
76567;DHT22;65428;53.194;6.132;2023-04-25T05:42:39;6.60;99.90
76567;DHT22;65428;53.194;6.132;2023-04-25T05:45:05;6.40;99.90
76567;DHT22;65428;53.194;6.132;2023-04-25T05:47:31;6.50;99.90
76567;DHT22;65428;53.194;6.132;2023-04-25T05:49:56;6.70;99.90
76567;DHT22;65428;53.194;6.132;2023-04-25T05:52:22;6.70;99.90
76567;DHT22;65428;53.194;6.132;2023-04-25T05:54:48;6.60;99.90
76567;DHT22;65428;53.194;6.132;2023-04-25T05:57:24;6.40;99.90
76567;DHT22;65428;53.194;6.132;2023-04-25T05:59:50;6.20;99.90
76567;DHT22;65428;53.194;6.132;2023-04-25T06:02:17;6.10;99.90
76567;DHT22;65428;53.194;6.132;2023-04-25T06:04:42;6.10;99.90
76567;DHT22;65428;53.194;6.132;2023-04-25T06:07:08;6.10;99.90
76567;DHT22;65428;53.194;6.132;2023-04-25T06:09:34;6.10;99.90
76567;DHT22;65428;53.194;6.132;2023-04-25T06:12:00;6.20;99.90
76567;DHT22;65428;53.194;6.132;2023-04-25T06:14:26;6.20;99.90
76567;DHT22;65428;53.194;6.132;2023-04-25T06:16:52;6.30;99.90
76567;DHT22;65428;53.194;6.132;2023-04-25T06:19:17;6.20;99.90
76567;DHT22;65428;53.194;6.132;2023-04-25T06:21:44;6.40;99.90
76567;DHT22;65428;53.194;6.132;2023-04-25T06:24:09;6.70;99.90
76567;DHT22;65428;53.194;6.132;2023-04-25T06:26:35;6.70;99.90
76567;DHT22;65428;53.194;6.132;2023-04-25T06:29:01;6.90;99.90
76567;DHT22;65428;53.194;6.132;2023-04-25T06:31:27;7.10;99.90
76567;DHT22;65428;53.194;6.132;2023-04-25T06:33:54;7.00;99.90
76567;DHT22;65428;53.194;6.132;2023-04-25T06:36:23;7.00;99.90
76567;DHT22;65428;53.194;6.132;2023-04-25T06:38:53;7.00;99.90
76567;DHT22;65428;53.194;6.132;2023-04-25T06:41:20;7.20;99.90
76567;DHT22;65428;53.194;6.132;2023-04-25T06:43:46;7.30;99.90
76567;DHT22;65428;53.194;6.132;2023-04-25T06:46:12;7.40;99.90
76567;DHT22;65428;53.194;6.132;2023-04-25T06:48:38;7.70;99.90
76567;DHT22;65428;53.194;6.132;2023-04-25T06:51:03;7.90;99.90
76567;DHT22;65428;53.194;6.132;2023-04-25T06:53:29;8.10;99.90
76567;DHT22;65428;53.194;6.132;2023-04-25T06:55:55;8.30;99.90
76567;DHT22;65428;53.194;6.132;2023-04-25T06:58:20;8.60;99.90
76567;DHT22;65428;53.194;6.132;2023-04-25T07:00:46;8.30;99.90
76567;DHT22;65428;53.194;6.132;2023-04-25T07:03:12;7.70;99.90
76567;DHT22;65428;53.194;6.132;2023-04-25T07:05:37;7.40;99.90
76567;DHT22;65428;53.194;6.132;2023-04-25T07:08:03;7.40;99.90
76567;DHT22;65428;53.194;6.132;2023-04-25T07:10:29;7.20;99.90
76567;DHT22;65428;53.194;6.132;2023-04-25T07:12:54;7.10;99.90
76567;DHT22;65428;53.194;6.132;2023-04-25T07:15:20;7.00;99.90
76567;DHT22;65428;53.194;6.132;2023-04-25T07:17:46;7.00;99.90
76567;DHT22;65428;53.194;6.132;2023-04-25T07:20:12;7.00;99.90
76567;DHT22;65428;53.194;6.132;2023-04-25T07:22:37;7.00;99.90
76567;DHT22;65428;53.194;6.132;2023-04-25T07:25:03;7.00;99.90
76567;DHT22;65428;53.194;6.132;2023-04-25T07:27:30;7.10;99.90
76567;DHT22;65428;53.194;6.132;2023-04-25T07:29:55;7.50;99.90
76567;DHT22;65428;53.194;6.132;2023-04-25T07:32:21;7.20;99.90
76567;DHT22;65428;53.194;6.132;2023-04-25T07:34:47;7.30;99.90
76567;DHT22;65428;53.194;6.132;2023-04-25T07:37:13;7.20;99.90
76567;DHT22;65428;53.194;6.132;2023-04-25T07:39:39;7.20;99.90
76567;DHT22;65428;53.194;6.132;2023-04-25T07:42:05;7.40;99.90
76567;DHT22;65428;53.194;6.132;2023-04-25T07:44:34;7.50;99.90
76567;DHT22;65428;53.194;6.132;2023-04-25T07:47:07;7.60;99.90
76567;DHT22;65428;53.194;6.132;2023-04-25T07:49:34;7.80;99.90
76567;DHT22;65428;53.194;6.132;2023-04-25T07:52:03;8.00;99.90
76567;DHT22;65428;53.194;6.132;2023-04-25T07:54:29;8.00;99.90
76567;DHT22;65428;53.194;6.132;2023-04-25T07:56:55;8.10;99.90
76567;DHT22;65428;53.194;6.132;2023-04-25T07:59:21;8.30;99.90
76567;DHT22;65428;53.194;6.132;2023-04-25T08:01:47;8.60;99.90
76567;DHT22;65428;53.194;6.132;2023-04-25T08:04:13;9.00;99.90
76567;DHT22;65428;53.194;6.132;2023-04-25T08:06:38;9.20;93.60
76567;DHT22;65428;53.194;6.132;2023-04-25T08:09:05;9.20;91.30
76567;DHT22;65428;53.194;6.132;2023-04-25T08:11:31;9.00;81.30
76567;DHT22;65428;53.194;6.132;2023-04-25T08:13:57;8.90;94.90
76567;DHT22;65428;53.194;6.132;2023-04-25T08:16:22;8.50;99.00
76567;DHT22;65428;53.194;6.132;2023-04-25T08:18:49;7.90;99.90
76567;DHT22;65428;53.194;6.132;2023-04-25T08:21:15;7.30;99.90
76567;DHT22;65428;53.194;6.132;2023-04-25T08:23:41;7.20;99.90
76567;DHT22;65428;53.194;6.132;2023-04-25T08:26:06;7.50;99.90
76567;DHT22;65428;53.194;6.132;2023-04-25T08:28:32;7.30;99.90
76567;DHT22;65428;53.194;6.132;2023-04-25T08:30:58;7.00;99.90
76567;DHT22;65428;53.194;6.132;2023-04-25T08:33:23;7.10;99.90
76567;DHT22;65428;53.194;6.132;2023-04-25T08:35:49;7.20;99.90
76567;DHT22;65428;53.194;6.132;2023-04-25T08:38:15;7.50;99.90
76567;DHT22;65428;53.194;6.132;2023-04-25T08:40:41;8.00;99.90
76567;DHT22;65428;53.194;6.132;2023-04-25T08:43:08;8.10;99.90
76567;DHT22;65428;53.194;6.132;2023-04-25T08:45:39;8.50;99.90
76567;DHT22;65428;53.194;6.132;2023-04-25T08:48:12;9.10;99.90
76567;DHT22;65428;53.194;6.132;2023-04-25T08:50:53;9.10;99.90
76567;DHT22;65428;53.194;6.132;2023-04-25T08:53:24;9.20;99.90
76567;DHT22;65428;53.194;6.132;2023-04-25T08:55:51;9.50;99.90
76567;DHT22;65428;53.194;6.132;2023-04-25T08:58:18;9.60;97.20
76567;DHT22;65428;53.194;6.132;2023-04-25T09:00:46;9.80;99.90
76567;DHT22;65428;53.194;6.132;2023-04-25T09:03:12;10.00;99.90
76567;DHT22;65428;53.194;6.132;2023-04-25T09:05:40;10.20;93.90
76567;DHT22;65428;53.194;6.132;2023-04-25T09:08:05;10.10;99.90
76567;DHT22;65428;53.194;6.132;2023-04-25T09:10:31;9.70;99.50
76567;DHT22;65428;53.194;6.132;2023-04-25T09:13:08;9.30;98.60
76567;DHT22;65428;53.194;6.132;2023-04-25T09:15:51;8.50;99.90
76567;DHT22;65428;53.194;6.132;2023-04-25T09:18:24;8.50;99.50
76567;DHT22;65428;53.194;6.132;2023-04-25T09:20:52;8.70;89.90
76567;DHT22;65428;53.194;6.132;2023-04-25T09:23:19;9.00;99.90
76567;DHT22;65428;53.194;6.132;2023-04-25T09:25:48;9.20;88.50
76567;DHT22;65428;53.194;6.132;2023-04-25T09:28:14;9.40;84.30
76567;DHT22;65428;53.194;6.132;2023-04-25T09:30:40;9.50;75.00
76567;DHT22;65428;53.194;6.132;2023-04-25T09:33:07;9.60;70.10
76567;DHT22;65428;53.194;6.132;2023-04-25T09:35:42;9.70;75.10
76567;DHT22;65428;53.194;6.132;2023-04-25T09:38:13;10.00;74.80
76567;DHT22;65428;53.194;6.132;2023-04-25T09:40:40;10.10;64.70
76567;DHT22;65428;53.194;6.132;2023-04-25T09:43:10;9.80;65.80
76567;DHT22;65428;53.194;6.132;2023-04-25T09:45:43;10.40;75.20
76567;DHT22;65428;53.194;6.132;2023-04-25T09:48:17;10.10;85.80
76567;DHT22;65428;53.194;6.132;2023-04-25T09:50:43;10.00;68.20
76567;DHT22;65428;53.194;6.132;2023-04-25T09:53:09;9.90;69.10
76567;DHT22;65428;53.194;6.132;2023-04-25T09:55:35;9.80;65.90
76567;DHT22;65428;53.194;6.132;2023-04-25T09:58:04;9.90;76.50
76567;DHT22;65428;53.194;6.132;2023-04-25T10:00:33;10.00;71.20
76567;DHT22;65428;53.194;6.132;2023-04-25T10:03:05;10.30;70.00
76567;DHT22;65428;53.194;6.132;2023-04-25T10:05:32;9.90;79.70
76567;DHT22;65428;53.194;6.132;2023-04-25T10:08:02;9.50;91.70
76567;DHT22;65428;53.194;6.132;2023-04-25T10:10:30;8.90;99.90
76567;DHT22;65428;53.194;6.132;2023-04-25T10:13:05;8.70;99.90
76567;DHT22;65428;53.194;6.132;2023-04-25T10:15:34;8.70;99.90
76567;DHT22;65428;53.194;6.132;2023-04-25T10:18:01;8.90;99.90
76567;DHT22;65428;53.194;6.132;2023-04-25T10:20:26;9.40;99.90
76567;DHT22;65428;53.194;6.132;2023-04-25T10:22:54;9.40;99.90
76567;DHT22;65428;53.194;6.132;2023-04-25T10:25:23;9.50;99.90
76567;DHT22;65428;53.194;6.132;2023-04-25T10:27:51;9.50;99.90
76567;DHT22;65428;53.194;6.132;2023-04-25T10:30:18;9.30;99.90
76567;DHT22;65428;53.194;6.132;2023-04-25T10:32:44;9.20;99.90
76567;DHT22;65428;53.194;6.132;2023-04-25T10:35:17;9.20;99.90
76567;DHT22;65428;53.194;6.132;2023-04-25T10:38:19;8.40;99.90
76567;DHT22;65428;53.194;6.132;2023-04-25T10:41:03;8.30;99.90
76567;DHT22;65428;53.194;6.132;2023-04-25T10:43:44;8.40;99.90
76567;DHT22;65428;53.194;6.132;2023-04-25T10:48:53;8.40;99.90
76567;DHT22;65428;53.194;6.132;2023-04-25T10:51:32;8.90;99.90
76567;DHT22;65428;53.194;6.132;2023-04-25T10:59:17;10.30;74.30
76567;DHT22;65428;53.194;6.132;2023-04-25T11:01:47;10.30;76.50
76567;DHT22;65428;53.194;6.132;2023-04-25T11:04:29;10.50;73.50
76567;DHT22;65428;53.194;6.132;2023-04-25T11:09:37;10.40;79.00
76567;DHT22;65428;53.194;6.132;2023-04-25T11:12:04;10.00;76.40
76567;DHT22;65428;53.194;6.132;2023-04-25T11:14:30;9.90;91.10
76567;DHT22;65428;53.194;6.132;2023-04-25T11:16:57;10.30;90.60
76567;DHT22;65428;53.194;6.132;2023-04-25T11:19:24;10.40;92.30
76567;DHT22;65428;53.194;6.132;2023-04-25T11:21:50;10.80;92.60
76567;DHT22;65428;53.194;6.132;2023-04-25T11:24:20;11.20;82.50
76567;DHT22;65428;53.194;6.132;2023-04-25T11:26:50;11.40;77.20
76567;DHT22;65428;53.194;6.132;2023-04-25T11:29:16;11.50;69.10
76567;DHT22;65428;53.194;6.132;2023-04-25T11:31:44;11.70;73.90
76567;DHT22;65428;53.194;6.132;2023-04-25T11:34:17;11.70;69.20
76567;DHT22;65428;53.194;6.132;2023-04-25T11:36:45;11.30;66.60
76567;DHT22;65428;53.194;6.132;2023-04-25T11:39:11;10.60;66.60
76567;DHT22;65428;53.194;6.132;2023-04-25T11:41:41;10.10;68.00
76567;DHT22;65428;53.194;6.132;2023-04-25T11:44:07;9.60;73.20
76567;DHT22;65428;53.194;6.132;2023-04-25T11:46:36;9.30;86.20
76567;DHT22;65428;53.194;6.132;2023-04-25T11:49:02;9.80;85.80
76567;DHT22;65428;53.194;6.132;2023-04-25T11:51:28;9.20;91.20
76567;DHT22;65428;53.194;6.132;2023-04-25T11:53:53;10.00;80.90
76567;DHT22;65428;53.194;6.132;2023-04-25T11:56:20;10.20;91.60
76567;DHT22;65428;53.194;6.132;2023-04-25T11:58:57;10.70;95.90
76567;DHT22;65428;53.194;6.132;2023-04-25T12:01:33;11.10;80.30
76567;DHT22;65428;53.194;6.132;2023-04-25T12:04:16;11.30;75.80
76567;DHT22;65428;53.194;6.132;2023-04-25T12:06:43;11.30;75.90
76567;DHT22;65428;53.194;6.132;2023-04-25T12:09:11;11.30;90.60
76567;DHT22;65428;53.194;6.132;2023-04-25T12:11:42;11.10;80.00
76567;DHT22;65428;53.194;6.132;2023-04-25T12:14:09;10.90;82.20
76567;DHT22;65428;53.194;6.132;2023-04-25T12:16:42;11.20;83.70
76567;DHT22;65428;53.194;6.132;2023-04-25T12:19:08;12.20;92.10
76567;DHT22;65428;53.194;6.132;2023-04-25T12:21:34;12.30;80.50
76567;DHT22;65428;53.194;6.132;2023-04-25T12:26:52;12.20;66.70
76567;DHT22;65428;53.194;6.132;2023-04-25T12:29:20;12.50;70.10
76567;DHT22;65428;53.194;6.132;2023-04-25T12:31:46;12.50;64.20
76567;DHT22;65428;53.194;6.132;2023-04-25T12:34:12;11.70;59.50
76567;DHT22;65428;53.194;6.132;2023-04-25T12:36:37;11.10;63.00
76567;DHT22;65428;53.194;6.132;2023-04-25T12:39:04;10.60;64.10
76567;DHT22;65428;53.194;6.132;2023-04-25T12:41:30;10.30;70.70
76567;DHT22;65428;53.194;6.132;2023-04-25T12:43:56;10.00;74.70
76567;DHT22;65428;53.194;6.132;2023-04-25T12:46:21;9.90;75.20
76567;DHT22;65428;53.194;6.132;2023-04-25T12:48:48;10.10;85.10
76567;DHT22;65428;53.194;6.132;2023-04-25T12:51:14;10.20;79.20
76567;DHT22;65428;53.194;6.132;2023-04-25T12:53:40;10.20;75.40
76567;DHT22;65428;53.194;6.132;2023-04-25T12:56:07;10.50;68.60
76567;DHT22;65428;53.194;6.132;2023-04-25T12:58:33;11.00;72.30
76567;DHT22;65428;53.194;6.132;2023-04-25T13:01:02;11.60;75.90
76567;DHT22;65428;53.194;6.132;2023-04-25T13:03:27;11.60;65.00
76567;DHT22;65428;53.194;6.132;2023-04-25T13:05:53;11.50;65.90
76567;DHT22;65428;53.194;6.132;2023-04-25T13:08:19;12.10;66.40
76567;DHT22;65428;53.194;6.132;2023-04-25T13:10:45;12.50;63.40
76567;DHT22;65428;53.194;6.132;2023-04-25T13:13:10;12.40;81.10
76567;DHT22;65428;53.194;6.132;2023-04-25T13:15:36;10.60;96.10
76567;DHT22;65428;53.194;6.132;2023-04-25T13:18:03;9.40;99.90
76567;DHT22;65428;53.194;6.132;2023-04-25T13:20:29;8.60;99.90
76567;DHT22;65428;53.194;6.132;2023-04-25T13:22:55;8.00;99.90
76567;DHT22;65428;53.194;6.132;2023-04-25T13:25:20;7.40;99.90
76567;DHT22;65428;53.194;6.132;2023-04-25T13:27:47;7.20;99.90
76567;DHT22;65428;53.194;6.132;2023-04-25T13:30:13;6.80;99.90
76567;DHT22;65428;53.194;6.132;2023-04-25T13:32:39;6.70;99.90
76567;DHT22;65428;53.194;6.132;2023-04-25T13:35:14;6.60;99.90
76567;DHT22;65428;53.194;6.132;2023-04-25T13:37:40;7.00;99.90
76567;DHT22;65428;53.194;6.132;2023-04-25T13:40:10;7.60;99.90
76567;DHT22;65428;53.194;6.132;2023-04-25T13:42:39;7.60;99.90
76567;DHT22;65428;53.194;6.132;2023-04-25T13:45:06;7.60;99.90
76567;DHT22;65428;53.194;6.132;2023-04-25T13:47:32;8.30;99.90
76567;DHT22;65428;53.194;6.132;2023-04-25T13:49:58;9.00;99.90
76567;DHT22;65428;53.194;6.132;2023-04-25T13:52:25;9.30;99.90
76567;DHT22;65428;53.194;6.132;2023-04-25T13:54:51;9.40;99.90
76567;DHT22;65428;53.194;6.132;2023-04-25T13:57:17;9.50;99.90
76567;DHT22;65428;53.194;6.132;2023-04-25T13:59:43;9.40;99.90
76567;DHT22;65428;53.194;6.132;2023-04-25T14:02:08;9.50;99.90
76567;DHT22;65428;53.194;6.132;2023-04-25T14:04:34;10.40;99.90
76567;DHT22;65428;53.194;6.132;2023-04-25T14:07:00;11.20;95.90
76567;DHT22;65428;53.194;6.132;2023-04-25T14:09:27;10.90;82.60
76567;DHT22;65428;53.194;6.132;2023-04-25T14:11:53;10.60;92.20
76567;DHT22;65428;53.194;6.132;2023-04-25T14:14:20;10.30;75.30
76567;DHT22;65428;53.194;6.132;2023-04-25T14:16:49;10.90;69.50
76567;DHT22;65428;53.194;6.132;2023-04-25T14:19:16;11.20;74.10
76567;DHT22;65428;53.194;6.132;2023-04-25T14:21:42;11.40;66.50
76567;DHT22;65428;53.194;6.132;2023-04-25T14:24:11;11.60;63.50
76567;DHT22;65428;53.194;6.132;2023-04-25T14:26:37;11.30;61.70
76567;DHT22;65428;53.194;6.132;2023-04-25T14:29:06;11.20;61.00
76567;DHT22;65428;53.194;6.132;2023-04-25T14:31:33;11.20;66.50
76567;DHT22;65428;53.194;6.132;2023-04-25T14:33:59;11.00;68.50
76567;DHT22;65428;53.194;6.132;2023-04-25T14:36:25;10.60;71.50
76567;DHT22;65428;53.194;6.132;2023-04-25T14:38:52;10.10;76.30
76567;DHT22;65428;53.194;6.132;2023-04-25T14:41:18;9.80;91.70
76567;DHT22;65428;53.194;6.132;2023-04-25T14:43:43;9.50;90.10
76567;DHT22;65428;53.194;6.132;2023-04-25T14:46:10;9.20;94.80
76567;DHT22;65428;53.194;6.132;2023-04-25T14:48:36;9.00;91.90
76567;DHT22;65428;53.194;6.132;2023-04-25T14:51:02;9.20;96.50
76567;DHT22;65428;53.194;6.132;2023-04-25T14:53:28;9.10;98.10
76567;DHT22;65428;53.194;6.132;2023-04-25T14:55:53;9.30;98.70
76567;DHT22;65428;53.194;6.132;2023-04-25T14:58:19;9.60;92.70
76567;DHT22;65428;53.194;6.132;2023-04-25T15:00:46;9.70;90.90
76567;DHT22;65428;53.194;6.132;2023-04-25T15:03:12;9.70;77.90
76567;DHT22;65428;53.194;6.132;2023-04-25T15:05:39;9.80;76.20
76567;DHT22;65428;53.194;6.132;2023-04-25T15:08:05;9.50;75.00
76567;DHT22;65428;53.194;6.132;2023-04-25T15:10:31;9.50;73.90
76567;DHT22;65428;53.194;6.132;2023-04-25T15:12:57;9.10;75.50
76567;DHT22;65428;53.194;6.132;2023-04-25T15:15:22;8.90;82.40
76567;DHT22;65428;53.194;6.132;2023-04-25T15:17:49;8.70;87.20
76567;DHT22;65428;53.194;6.132;2023-04-25T15:20:15;8.60;95.40
76567;DHT22;65428;53.194;6.132;2023-04-25T15:22:42;9.20;99.90
76567;DHT22;65428;53.194;6.132;2023-04-25T15:25:09;8.70;97.10
76567;DHT22;65428;53.194;6.132;2023-04-25T15:27:35;8.90;94.30
76567;DHT22;65428;53.194;6.132;2023-04-25T15:30:08;9.00;87.30
76567;DHT22;65428;53.194;6.132;2023-04-25T15:32:36;9.10;83.10
76567;DHT22;65428;53.194;6.132;2023-04-25T15:35:06;9.10;74.50
76567;DHT22;65428;53.194;6.132;2023-04-25T15:37:32;9.20;66.90
76567;DHT22;65428;53.194;6.132;2023-04-25T15:42:36;9.20;70.30
76567;DHT22;65428;53.194;6.132;2023-04-25T15:45:06;9.60;72.80
76567;DHT22;65428;53.194;6.132;2023-04-25T15:47:33;9.40;74.40
76567;DHT22;65428;53.194;6.132;2023-04-25T15:49:59;9.60;84.00
76567;DHT22;65428;53.194;6.132;2023-04-25T15:52:25;10.00;82.10
76567;DHT22;65428;53.194;6.132;2023-04-25T15:54:52;9.60;68.30
76567;DHT22;65428;53.194;6.132;2023-04-25T15:57:18;9.40;74.30